createdAt,value
2019-05-15T00:00:39.287Z,1.10
2019-05-15T00:03:05.555Z,1.50
2019-05-15T00:05:31.806Z,1.23
2019-05-15T00:07:59.289Z,1.40
2019-05-15T00:10:25.627Z,1.27
2019-05-15T00:12:51.893Z,1.30
2019-05-15T00:15:18.366Z,1.03
2019-05-15T00:17:44.801Z,1.40
2019-05-15T00:20:11.153Z,1.63
2019-05-15T00:22:38.790Z,1.40
2019-05-15T00:25:05.787Z,1.40
2019-05-15T00:27:32.169Z,1.40
2019-05-15T00:29:58.429Z,1.20
2019-05-15T00:32:24.785Z,1.50
2019-05-15T00:34:51.021Z,1.47
2019-05-15T00:37:18.240Z,1.60
2019-05-15T00:39:44.837Z,1.23
2019-05-15T00:42:11.201Z,1.60
2019-05-15T00:44:38.691Z,1.80
2019-05-15T00:47:10.233Z,1.30
2019-05-15T00:49:34.597Z,1.80
2019-05-15T00:52:00.845Z,1.57
2019-05-15T00:54:28.195Z,1.80
2019-05-15T00:56:54.541Z,1.97
2019-05-15T00:59:26.494Z,1.40
2019-05-15T01:01:48.978Z,1.50
2019-05-15T01:04:15.233Z,1.37
2019-05-15T01:06:41.483Z,1.40
2019-05-15T01:09:08.640Z,1.30
2019-05-15T01:11:34.782Z,1.40
2019-05-15T01:14:01.026Z,1.53
2019-05-15T01:16:28.090Z,1.30
2019-05-15T01:18:54.565Z,1.40
2019-05-15T01:21:21.105Z,1.30
2019-05-15T01:23:48.355Z,1.30
2019-05-15T01:26:14.821Z,1.37
2019-05-15T01:28:41.225Z,1.53
2019-05-15T01:31:08.548Z,1.23
2019-05-15T01:33:35.002Z,1.30
2019-05-15T01:36:01.262Z,1.30
2019-05-15T01:38:29.202Z,1.23
2019-05-15T01:40:55.536Z,1.50
2019-05-15T01:43:21.806Z,1.80
2019-05-15T01:45:48.423Z,1.90
2019-05-15T01:48:14.763Z,1.47
2019-05-15T01:50:41.137Z,1.13
2019-05-15T01:53:08.290Z,1.37
2019-05-15T01:55:35.150Z,1.27
2019-05-15T01:58:01.413Z,1.60
2019-05-15T02:00:28.207Z,1.50
2019-05-15T02:02:54.546Z,1.37
2019-05-15T02:05:21.158Z,1.40
2019-05-15T02:07:48.574Z,1.53
2019-05-15T02:10:15.385Z,1.57
2019-05-15T02:12:41.550Z,1.27
2019-05-15T02:15:08.558Z,1.30
2019-05-15T02:17:35.096Z,1.30
2019-05-15T02:20:01.801Z,1.37
2019-05-15T02:22:28.340Z,1.30
2019-05-15T02:24:54.916Z,1.30
2019-05-15T02:27:21.526Z,1.40
2019-05-15T02:29:49.370Z,1.63
2019-05-15T02:32:19.096Z,1.50
2019-05-15T02:34:43.814Z,1.20
2019-05-15T02:37:10.555Z,1.50
2019-05-15T02:39:38.929Z,1.50
2019-05-15T02:42:04.885Z,1.47
2019-05-15T02:44:31.122Z,1.80
2019-05-15T02:46:58.790Z,1.40
2019-05-15T02:49:25.353Z,1.33
2019-05-15T02:51:51.613Z,1.10
2019-05-15T02:54:19.615Z,1.73
2019-05-15T02:56:45.835Z,1.27
2019-05-15T02:59:12.097Z,1.60
2019-05-15T03:01:40.287Z,1.63
2019-05-15T03:04:09.261Z,1.30
2019-05-15T03:06:34.940Z,1.20
2019-05-15T03:09:01.178Z,1.20
2019-05-15T03:11:29.472Z,1.47
2019-05-15T03:13:55.490Z,1.30
2019-05-15T03:16:21.895Z,1.27
2019-05-15T03:18:50.492Z,1.23
2019-05-15T03:21:18.764Z,1.10
2019-05-15T03:23:44.765Z,0.90
2019-05-15T03:26:11.020Z,1.40
2019-05-15T03:28:39.204Z,1.10
2019-05-15T03:31:22.405Z,1.20
2019-05-15T03:33:36.741Z,1.40
2019-05-15T03:36:03.555Z,1.20
2019-05-15T03:38:31.037Z,1.00
2019-05-15T03:40:59.562Z,1.20
2019-05-15T03:43:29.224Z,1.27
2019-05-15T03:45:56.148Z,1.10
2019-05-15T03:48:23.460Z,1.07
2019-05-15T03:50:50.023Z,1.23
2019-05-15T03:53:18.969Z,1.47
2019-05-15T03:55:44.532Z,1.10
2019-05-15T03:58:10.982Z,1.03
2019-05-15T04:00:39.617Z,1.20
2019-05-15T04:03:05.731Z,1.20
2019-05-15T04:05:31.981Z,1.27
2019-05-15T04:07:59.857Z,1.10
2019-05-15T04:10:28.824Z,1.10
2019-05-15T04:12:55.033Z,0.90
2019-05-15T04:15:21.371Z,1.07
2019-05-15T04:17:49.327Z,0.90
2019-05-15T04:20:15.979Z,1.00
2019-05-15T04:22:42.133Z,1.07
2019-05-15T04:25:09.773Z,0.83
2019-05-15T04:27:39.012Z,0.90
2019-05-15T04:30:04.663Z,1.07
2019-05-15T04:32:31.121Z,0.83
2019-05-15T04:34:59.313Z,1.20
2019-05-15T04:37:25.393Z,1.10
2019-05-15T04:39:51.534Z,1.20
2019-05-15T04:42:20.281Z,1.10
2019-05-15T04:44:45.893Z,1.07
2019-05-15T04:47:12.053Z,1.13
2019-05-15T04:49:39.446Z,0.90
2019-05-15T04:52:05.994Z,1.07
2019-05-15T04:54:32.270Z,0.80
2019-05-15T04:56:59.402Z,0.97
2019-05-15T04:59:29.800Z,1.00
2019-05-15T05:02:12.935Z,0.90
2019-05-15T05:04:23.232Z,1.07
2019-05-15T05:06:50.107Z,1.10
2019-05-15T05:09:19.792Z,0.93
2019-05-15T05:11:45.420Z,1.40
2019-05-15T05:14:11.657Z,1.40
2019-05-15T05:16:39.347Z,1.00
2019-05-15T05:19:08.732Z,0.80
2019-05-15T05:21:34.429Z,0.80
2019-05-15T05:24:00.688Z,1.00
2019-05-15T05:26:29.213Z,0.97
2019-05-15T05:28:54.970Z,1.23
2019-05-15T05:31:21.234Z,0.90
2019-05-15T05:33:48.688Z,1.27
2019-05-15T05:36:15.150Z,0.80
2019-05-15T05:38:41.458Z,1.17
2019-05-15T05:41:08.261Z,1.10
2019-05-15T05:43:34.757Z,1.10
2019-05-15T05:46:01.010Z,0.90
2019-05-15T05:48:29.282Z,1.10
2019-05-15T05:50:55.319Z,0.80
2019-05-15T05:53:21.700Z,0.87
2019-05-15T05:55:49.211Z,0.90
2019-05-15T05:58:19.356Z,1.00
2019-05-15T06:00:44.907Z,0.93
2019-05-15T06:03:11.254Z,1.00
2019-05-15T06:05:38.903Z,1.00
2019-05-15T06:08:08.049Z,0.90
2019-05-15T06:10:34.475Z,0.90
2019-05-15T06:13:01.387Z,0.90
2019-05-15T06:15:28.557Z,1.10
2019-05-15T06:17:58.439Z,0.80
2019-05-15T06:20:24.194Z,0.80
2019-05-15T06:22:50.463Z,1.17
2019-05-15T06:25:19.759Z,1.30
2019-05-15T06:27:44.808Z,1.00
2019-05-15T06:30:18.611Z,1.20
2019-05-15T06:32:40.034Z,0.90
2019-05-15T06:35:08.626Z,1.07
2019-05-15T06:37:35.007Z,0.97
2019-05-15T06:40:01.518Z,1.13
2019-05-15T06:42:28.370Z,0.70
2019-05-15T06:44:54.850Z,1.40
2019-05-15T06:47:21.135Z,1.27
2019-05-15T06:49:48.601Z,1.00
2019-05-15T06:52:17.999Z,1.00
2019-05-15T06:54:43.917Z,0.90
2019-05-15T06:57:10.178Z,0.83
2019-05-15T06:59:38.757Z,1.03
2019-05-15T07:02:04.839Z,1.07
2019-05-15T07:04:31.145Z,0.90
2019-05-15T07:06:58.354Z,1.00
2019-05-15T07:09:24.767Z,1.47
2019-05-15T07:11:51.039Z,1.00
2019-05-15T07:14:18.083Z,1.23
2019-05-15T07:16:44.647Z,1.07
2019-05-15T07:19:10.922Z,1.10
2019-05-15T07:21:38.859Z,1.30
2019-05-15T07:24:05.347Z,1.03
2019-05-15T07:26:31.651Z,1.10
2019-05-15T07:28:59.538Z,1.10
2019-05-15T07:31:25.970Z,1.30
2019-05-15T07:33:52.246Z,1.10
2019-05-15T07:36:19.270Z,1.00
2019-05-15T07:38:48.364Z,1.20
2019-05-15T07:41:14.578Z,1.37
2019-05-15T07:43:40.853Z,1.27
2019-05-15T07:46:08.415Z,1.30
2019-05-15T07:48:35.017Z,1.73
2019-05-15T07:51:01.318Z,1.30
2019-05-15T07:53:28.866Z,1.20
2019-05-15T07:55:55.273Z,1.00
2019-05-15T07:58:22.175Z,1.17
2019-05-15T08:00:49.375Z,1.20
2019-05-15T08:03:18.342Z,1.80
2019-05-15T08:05:56.037Z,1.60
2019-05-15T08:08:12.686Z,1.30
2019-05-15T08:10:39.710Z,1.20
2019-05-15T08:13:08.606Z,1.00
2019-05-15T08:15:34.562Z,1.00
2019-05-15T08:18:08.772Z,1.30
2019-05-15T08:20:29.289Z,1.40
2019-05-15T08:22:58.082Z,1.27
2019-05-15T08:25:32.391Z,1.40
2019-05-15T08:27:51.970Z,1.40
2019-05-15T08:30:18.525Z,0.90
2019-05-15T08:32:45.060Z,1.50
2019-05-15T08:35:14.048Z,1.20
2019-05-15T08:37:40.337Z,1.30
2019-05-15T08:40:08.552Z,1.13
2019-05-15T08:42:35.050Z,1.10
2019-05-15T08:45:01.668Z,1.23
2019-05-15T08:47:29.694Z,1.50
2019-05-15T08:49:57.950Z,1.10
2019-05-15T08:52:28.319Z,0.90
2019-05-15T08:54:54.930Z,1.00
2019-05-15T08:57:21.359Z,1.40
2019-05-15T08:59:48.835Z,1.20
2019-05-15T09:02:15.671Z,1.20
2019-05-15T09:04:42.038Z,1.33
2019-05-15T09:07:09.264Z,0.90
2019-05-15T09:09:38.347Z,1.23
2019-05-15T09:12:07.650Z,1.07
2019-05-15T09:14:33.805Z,1.40
2019-05-15T09:17:00.261Z,1.27
2019-05-15T09:19:28.098Z,1.53
2019-05-15T09:21:54.521Z,1.57
2019-05-15T09:24:20.689Z,1.30
2019-05-15T09:26:48.680Z,1.20
2019-05-15T09:29:15.413Z,1.50
2019-05-15T09:31:41.825Z,1.20
2019-05-15T09:34:09.082Z,1.60
2019-05-15T09:36:36.012Z,1.40
2019-05-15T09:39:04.374Z,1.00
2019-05-15T09:41:30.666Z,1.50
2019-05-15T09:43:57.926Z,1.40
2019-05-15T09:46:24.474Z,1.30
2019-05-15T09:48:52.079Z,1.20
2019-05-15T09:51:18.618Z,1.07
2019-05-15T09:53:45.078Z,1.40
2019-05-15T09:56:11.892Z,0.90
2019-05-15T09:58:38.405Z,1.37
2019-05-15T10:01:04.960Z,1.20
2019-05-15T10:03:31.276Z,1.10
2019-05-15T10:05:57.625Z,1.13
2019-05-15T10:08:23.932Z,1.27
2019-05-15T10:10:50.254Z,1.30
2019-05-15T10:13:18.480Z,0.90
2019-05-15T10:15:49.962Z,1.50
2019-05-15T10:18:13.309Z,1.70
2019-05-15T10:20:39.769Z,1.40
2019-05-15T10:23:08.600Z,1.17
2019-05-15T10:25:34.283Z,1.60
2019-05-15T10:28:00.550Z,1.77
2019-05-15T10:30:28.378Z,1.30
2019-05-15T10:32:54.856Z,1.43
2019-05-15T10:35:28.119Z,1.30
2019-05-15T10:37:49.339Z,1.13
2019-05-15T10:40:15.902Z,1.20
2019-05-15T10:42:42.222Z,1.23
2019-05-15T10:45:08.590Z,1.20
2019-05-15T10:47:34.980Z,1.70
2019-05-15T10:50:01.385Z,1.13
2019-05-15T10:52:28.696Z,1.40
2019-05-15T10:54:55.099Z,1.50
2019-05-15T10:57:21.322Z,1.60
2019-05-15T10:59:47.901Z,1.43
2019-05-15T11:02:14.373Z,1.63
2019-05-15T11:04:40.689Z,1.20
2019-05-15T11:07:06.966Z,1.37
2019-05-15T11:09:33.417Z,1.30
2019-05-15T11:11:59.834Z,1.50
2019-05-15T11:14:28.477Z,1.63
2019-05-15T11:16:54.467Z,1.50
2019-05-15T11:19:20.622Z,1.40
2019-05-15T11:21:48.564Z,1.67
2019-05-15T11:24:15.050Z,1.57
2019-05-15T11:26:41.298Z,1.67
2019-05-15T11:29:09.640Z,1.13
2019-05-15T11:31:36.126Z,1.40
2019-05-15T11:34:02.382Z,0.90
2019-05-15T11:36:29.006Z,1.40
2019-05-15T11:38:55.397Z,1.33
2019-05-15T11:41:21.676Z,1.50
2019-05-15T11:43:49.518Z,1.60
2019-05-15T11:46:18.419Z,1.47
2019-05-15T11:48:44.124Z,1.30
2019-05-15T11:51:10.634Z,1.50
2019-05-15T11:53:39.489Z,1.40
2019-05-15T11:56:05.343Z,1.57
2019-05-15T11:58:31.667Z,1.57
2019-05-15T12:00:58.081Z,1.50
2019-05-15T12:03:25.059Z,1.70
2019-05-15T12:05:51.518Z,1.40
2019-05-15T12:08:18.565Z,1.23
2019-05-15T12:10:45.097Z,1.70
2019-05-15T12:13:11.250Z,1.43
2019-05-15T12:15:38.902Z,1.50
2019-05-15T12:18:05.442Z,1.53
2019-05-15T12:20:31.884Z,1.80
2019-05-15T12:22:59.425Z,1.90
2019-05-15T12:25:31.518Z,1.30
2019-05-15T12:27:54.430Z,1.53
2019-05-15T12:30:20.914Z,1.60
2019-05-15T12:32:49.327Z,1.17
2019-05-15T12:35:15.802Z,1.60
2019-05-15T12:37:43.378Z,1.50
2019-05-15T12:59:59.250Z,1.47
2019-05-15T13:02:25.398Z,1.47
2019-05-15T13:04:51.883Z,1.43
2019-05-15T13:07:19.944Z,1.23
2019-05-15T13:09:46.279Z,1.13
2019-05-15T13:12:12.926Z,1.30
2019-05-15T13:14:39.212Z,1.60
2019-05-15T13:17:05.509Z,1.37
2019-05-15T13:19:31.787Z,1.30
2019-05-15T13:21:58.063Z,1.00
2019-05-15T13:24:24.411Z,2.10
2019-05-15T13:26:50.783Z,1.30
2019-05-15T13:29:18.246Z,1.30
2019-05-15T13:31:44.727Z,1.00
2019-05-15T13:34:10.982Z,1.10
2019-05-15T13:36:39.175Z,1.23
2019-05-15T13:39:05.793Z,1.00
2019-05-15T13:41:32.455Z,1.50
2019-05-15T13:43:58.909Z,1.30
2019-05-15T13:46:25.166Z,1.10
2019-05-15T13:48:51.681Z,0.97
2019-05-15T13:51:18.293Z,0.90
2019-05-15T13:53:44.613Z,1.07
2019-05-15T13:56:10.909Z,1.10
2019-05-15T13:58:38.857Z,1.23
2019-05-15T14:01:05.556Z,1.20
2019-05-15T14:03:32.090Z,1.10
2019-05-15T14:05:58.647Z,1.13
2019-05-15T14:08:28.542Z,1.20
2019-05-15T14:10:54.309Z,1.40
2019-05-15T14:13:20.854Z,1.10
2019-05-15T14:15:48.784Z,1.00
2019-05-15T14:18:15.254Z,0.80
2019-05-15T14:20:41.562Z,1.20
2019-05-15T14:23:08.721Z,1.07
2019-05-15T14:25:38.339Z,1.00
2019-05-15T14:28:04.158Z,1.10
2019-05-15T14:30:30.767Z,1.30
2019-05-15T14:32:59.742Z,1.02
2019-05-15T14:35:26.267Z,0.90
2019-05-15T14:38:05.470Z,1.03
2019-05-15T14:40:21.073Z,1.10
2019-05-15T14:42:48.526Z,1.10
2019-05-15T14:45:15.305Z,0.90
2019-05-15T14:47:41.662Z,1.13
2019-05-15T14:50:10.094Z,1.00
2019-05-15T14:52:38.541Z,1.20
2019-05-15T14:55:05.422Z,1.10
2019-05-15T14:57:31.837Z,1.20
2019-05-15T14:59:58.234Z,1.00
2019-05-15T15:02:24.682Z,1.10
2019-05-15T15:04:50.862Z,1.33
2019-05-15T15:07:18.915Z,1.07
2019-05-15T15:09:45.222Z,1.10
2019-05-15T15:12:11.556Z,1.13
2019-05-15T15:14:38.100Z,1.17
2019-05-15T15:17:04.453Z,1.23
2019-05-15T15:19:31.429Z,1.23
2019-05-15T15:21:58.013Z,1.03
2019-05-15T15:24:24.290Z,0.83
2019-05-15T15:26:50.593Z,7.63
2019-05-15T15:29:18.921Z,17.17
2019-05-15T15:31:45.141Z,5.23
2019-05-15T15:34:11.405Z,1.80
2019-05-15T15:36:38.078Z,1.30
2019-05-15T15:39:05.406Z,1.47
2019-05-15T15:41:32.053Z,1.20
2019-05-15T15:43:58.846Z,1.10
2019-05-15T15:46:25.211Z,0.97
2019-05-15T15:48:51.500Z,1.33
2019-05-15T15:51:18.263Z,1.00
2019-05-15T15:53:44.797Z,1.10
2019-05-15T15:56:11.393Z,1.37
2019-05-15T15:58:37.969Z,1.27
2019-05-15T16:01:04.969Z,1.03
2019-05-15T16:03:31.282Z,1.00
2019-05-15T16:05:57.580Z,1.00
2019-05-15T16:08:23.948Z,0.97
2019-05-15T16:10:50.326Z,1.20
2019-05-15T16:13:18.683Z,1.10
2019-05-15T16:15:45.485Z,1.20
2019-05-15T16:18:12.087Z,1.03
2019-05-15T16:20:39.609Z,1.00
2019-05-15T16:23:08.366Z,0.90
2019-05-15T16:25:34.958Z,1.10
2019-05-15T16:28:01.257Z,0.90
2019-05-15T16:30:28.548Z,1.10
2019-05-15T16:32:54.833Z,1.77
2019-05-15T16:35:21.130Z,1.60
2019-05-15T16:37:49.286Z,1.17
2019-05-15T16:40:17.900Z,1.17
2019-05-15T16:42:43.654Z,1.33
2019-05-15T16:45:10.170Z,1.13
2019-05-15T16:47:38.595Z,1.00
2019-05-15T16:50:04.626Z,0.97
2019-05-15T16:52:31.361Z,1.30
2019-05-15T16:54:58.116Z,1.30
2019-05-15T16:57:24.594Z,1.40
2019-05-15T16:59:50.848Z,1.30
2019-05-15T17:02:18.868Z,1.40
2019-05-15T17:04:45.165Z,1.53
2019-05-15T17:07:11.402Z,1.30
2019-05-15T17:09:38.705Z,1.30
2019-05-15T17:12:05.351Z,1.20
2019-05-15T17:14:31.645Z,1.27
2019-05-15T17:16:58.700Z,1.03
2019-05-15T17:19:25.214Z,1.03
2019-05-15T17:21:52.397Z,1.20
2019-05-15T17:24:18.976Z,0.90
2019-05-15T17:26:45.476Z,1.10
2019-05-15T17:29:12.249Z,1.03
2019-05-15T17:31:38.817Z,1.20
2019-05-15T17:34:05.353Z,1.13
2019-05-15T17:36:32.187Z,1.20
2019-05-15T17:38:58.707Z,1.20
2019-05-15T17:41:25.006Z,1.00
2019-05-15T17:43:51.334Z,1.23
2019-05-15T17:46:17.646Z,1.07
2019-05-15T17:48:43.970Z,1.37
2019-05-15T17:51:10.357Z,1.20
2019-05-15T17:53:38.284Z,1.40
2019-05-15T17:56:04.765Z,1.03
2019-05-15T17:58:31.245Z,1.17
2019-05-15T18:00:59.429Z,1.00
2019-05-15T18:03:25.680Z,0.90
2019-05-15T18:05:53.933Z,1.10
2019-05-15T18:08:20.299Z,1.00
2019-05-15T18:10:47.854Z,1.37
2019-05-15T18:13:14.794Z,1.13
2019-05-15T18:15:41.478Z,1.27
2019-05-15T18:18:09.537Z,1.10
2019-05-15T18:20:38.440Z,1.10
2019-05-15T18:23:04.360Z,1.20
2019-05-15T18:25:30.715Z,1.30
2019-05-15T18:27:59.269Z,1.03
2019-05-15T18:30:25.278Z,1.00
2019-05-15T18:32:52.477Z,1.07
2019-05-15T18:35:19.228Z,1.17
2019-05-15T18:37:45.563Z,0.80
2019-05-15T18:40:11.982Z,0.60
2019-05-15T18:42:39.117Z,0.80
2019-05-15T18:45:06.034Z,0.90
2019-05-15T18:47:32.374Z,0.80
2019-05-15T18:50:05.260Z,0.80
2019-05-15T18:52:28.782Z,1.00
2019-05-15T18:54:55.117Z,0.90
2019-05-15T18:57:21.393Z,1.00
2019-05-15T18:59:48.677Z,0.70
2019-05-15T19:02:15.147Z,0.90
2019-05-15T19:04:41.414Z,0.93
2019-05-15T19:07:08.901Z,0.97
2019-05-15T19:09:35.802Z,1.13
2019-05-15T19:12:02.054Z,1.13
2019-05-15T19:14:28.650Z,0.97
2019-05-15T19:16:54.929Z,1.00
2019-05-15T19:19:21.253Z,1.30
2019-05-15T19:21:48.879Z,1.13
2019-05-15T19:24:15.419Z,1.10
2019-05-15T19:26:41.769Z,1.20
2019-05-15T19:29:08.390Z,0.80
2019-05-15T19:31:34.958Z,1.00
2019-05-15T19:34:02.243Z,1.20
2019-05-15T19:36:28.852Z,1.10
2019-05-15T19:38:55.184Z,0.90
2019-05-15T19:41:21.525Z,0.87
2019-05-15T19:43:48.697Z,0.90
2019-05-15T19:46:15.439Z,1.23
2019-05-15T19:48:42.225Z,1.00
2019-05-15T19:51:09.131Z,1.20
2019-05-15T19:53:35.570Z,1.13
2019-05-15T19:56:01.906Z,1.30
2019-05-15T19:58:28.721Z,1.00
2019-05-15T20:00:55.129Z,1.30
2019-05-15T20:03:21.433Z,1.10
2019-05-15T20:05:48.566Z,1.20
2019-05-15T20:08:15.049Z,1.00
2019-05-15T20:10:41.735Z,1.40
2019-05-15T20:13:08.213Z,1.50
2019-05-15T20:15:34.498Z,1.30
2019-05-15T20:18:00.856Z,1.00
2019-05-15T20:20:28.307Z,0.90
2019-05-15T20:22:55.111Z,1.60
2019-05-15T20:25:22.994Z,1.10
2019-05-15T20:27:49.455Z,1.30
2019-05-15T20:30:18.162Z,1.77
2019-05-15T20:32:47.912Z,1.27
2019-05-15T20:35:14.350Z,1.30
2019-05-15T20:37:41.891Z,1.23
2019-05-15T20:40:09.519Z,1.07
2019-05-15T20:42:38.077Z,1.30
2019-05-15T20:45:04.610Z,1.20
2019-05-15T20:47:30.946Z,1.23
2019-05-15T20:49:57.465Z,1.10
2019-05-15T20:52:24.775Z,1.20
2019-05-15T20:54:51.214Z,1.30
2019-05-15T20:57:17.635Z,1.63
2019-05-15T20:59:43.965Z,1.20
2019-05-15T21:02:10.911Z,1.50
2019-05-15T21:04:38.509Z,1.40
2019-05-15T21:07:05.246Z,1.40
2019-05-15T21:09:32.572Z,1.40
2019-05-15T21:11:58.888Z,1.30
2019-05-15T21:14:25.284Z,1.20
2019-05-15T21:16:51.518Z,1.57
2019-05-15T21:19:18.954Z,1.47
2019-05-15T21:21:47.839Z,1.30
2019-05-15T21:24:13.973Z,1.47
2019-05-15T21:26:40.341Z,1.57
2019-05-15T21:29:07.847Z,1.60
2019-05-15T21:31:34.486Z,1.60
2019-05-15T21:34:00.809Z,1.60
2019-05-15T21:36:28.223Z,1.63
2019-05-15T21:38:55.286Z,1.60
2019-05-15T21:41:21.621Z,1.50
2019-05-15T21:43:48.238Z,1.40
2019-05-15T21:46:16.154Z,1.47
2019-05-15T21:48:42.487Z,1.40
2019-05-15T21:51:11.898Z,1.63
2019-05-15T21:53:38.905Z,1.70
2019-05-15T21:56:05.318Z,1.73
2019-05-15T21:58:31.569Z,2.10
2019-05-15T22:00:57.943Z,1.60
2019-05-15T22:03:24.647Z,1.43
2019-05-15T22:05:50.909Z,2.00
2019-05-15T22:08:18.353Z,2.10
2019-05-15T22:10:44.894Z,2.00
2019-05-15T22:13:11.054Z,1.80
2019-05-15T22:15:37.317Z,1.53
2019-05-15T22:18:04.189Z,2.10
2019-05-15T22:20:30.726Z,2.23
2019-05-15T22:22:59.539Z,2.07
2019-05-15T22:25:25.218Z,1.93
2019-05-15T22:27:51.501Z,2.20
2019-05-15T22:30:18.462Z,2.40
2019-05-15T22:32:44.739Z,2.30
2019-05-15T22:35:13.894Z,1.70
2019-05-15T22:37:41.509Z,1.90
2019-05-15T22:40:08.917Z,2.50
2019-05-15T22:42:35.293Z,1.97
2019-05-15T22:45:02.978Z,2.60
2019-05-15T22:47:29.146Z,2.20
2019-05-15T22:49:55.425Z,2.13
2019-05-15T22:52:21.870Z,2.40
2019-05-15T22:54:48.145Z,2.30
2019-05-15T22:57:14.763Z,2.67
2019-05-15T22:59:41.025Z,2.70
2019-05-15T23:02:09.267Z,2.50
2019-05-15T23:04:35.453Z,2.53
2019-05-15T23:07:01.606Z,2.50
2019-05-15T23:09:28.491Z,2.37
2019-05-15T23:11:54.766Z,2.60
2019-05-15T23:14:21.553Z,2.23
2019-05-15T23:16:48.316Z,3.30
2019-05-15T23:19:14.669Z,2.90
2019-05-15T23:21:40.822Z,2.53
2019-05-15T23:24:08.569Z,3.33
2019-05-15T23:26:34.953Z,3.30
2019-05-15T23:29:01.492Z,2.93
2019-05-15T23:31:28.149Z,2.93
2019-05-15T23:33:54.711Z,3.67
2019-05-15T23:36:21.037Z,3.23
2019-05-15T23:38:48.031Z,2.80
2019-05-15T23:41:14.477Z,2.67
2019-05-15T23:43:40.629Z,3.13
2019-05-15T23:46:08.023Z,3.23
2019-05-15T23:48:34.613Z,3.33
2019-05-15T23:51:00.766Z,3.00
2019-05-15T23:53:28.850Z,3.53
2019-05-15T23:55:55.102Z,3.47
2019-05-15T23:58:21.248Z,3.13
